Time;durP1;ratioP1;P1;durP2;ratioP2;P2;SDS_P1;SDS_P2;PMS_P1;PMS_P2;Temp;Humidity;BMP_temperature;BMP_pressure;BME280_temperature;BME280_humidity;BME280_pressure;Samples;Min_cycle;Max_cycle;Signal;HPM_P1;HPM_P2
2021/11/18 00:02:23;;;;;;;108.50;44.10;;;;;;;6.88;100.00;98708.22;4956860;28;20041;-75
2021/11/18 00:04:51;;;;;;;102.22;44.13;;;;;;;6.83;100.00;98711.69;4973883;28;20029;-75
2021/11/18 00:07:17;;;;;;;103.97;43.63;;;;;;;6.90;100.00;98712.31;4973189;28;20078;-77
2021/11/18 00:09:42;;;;;;;112.00;44.88;;;;;;;6.91;100.00;98702.28;4973027;28;20034;-75
2021/11/18 00:12:09;;;;;;;111.78;44.15;;;;;;;6.89;100.00;98718.03;4973565;28;20031;-75
2021/11/18 00:14:35;;;;;;;105.32;44.58;;;;;;;6.83;100.00;98713.56;4959106;28;20057;-80
2021/11/18 00:17:01;;;;;;;99.40;42.90;;;;;;;6.89;100.00;98712.59;4958848;28;20031;-75
2021/11/18 00:19:27;;;;;;;103.75;43.83;;;;;;;6.89;100.00;98726.19;4972823;28;20031;-75
2021/11/18 00:21:52;;;;;;;91.05;41.25;;;;;;;6.91;100.00;98718.59;4972843;28;20039;-75
2021/11/18 00:24:18;;;;;;;96.93;40.75;;;;;;;6.88;100.00;98719.09;4973125;28;20360;-75
2021/11/18 00:26:44;;;;;;;96.38;42.83;;;;;;;6.84;100.00;98718.78;4972615;28;20074;-76
2021/11/18 00:29:10;;;;;;;99.55;42.25;;;;;;;6.85;100.00;98716.88;4972824;28;20031;-75
2021/11/18 00:31:39;;;;;;;101.03;41.30;;;;;;;6.96;100.00;98715.91;4955263;28;20015;-74
2021/11/18 00:34:05;;;;;;;98.15;40.83;;;;;;;6.95;100.00;98727.88;4973389;28;20049;-75
2021/11/18 00:36:31;;;;;;;97.47;41.13;;;;;;;6.93;100.00;98719.13;4972743;28;20011;-76
2021/11/18 00:38:56;;;;;;;96.72;41.90;;;;;;;6.94;100.00;98728.94;4955139;28;20031;-75
2021/11/18 00:41:23;;;;;;;98.53;40.90;;;;;;;6.91;100.00;98724.03;4972884;28;20037;-74
2021/11/18 00:43:49;;;;;;;86.43;40.22;;;;;;;6.90;100.00;98725.09;4972605;28;20423;-76
2021/11/18 00:46:16;;;;;;;91.88;39.65;;;;;;;6.88;100.00;98724.53;4972807;28;20394;-76
2021/11/18 00:48:42;;;;;;;90.03;38.90;;;;;;;6.91;100.00;98724.03;4972430;28;20098;-76
2021/11/18 00:51:13;;;;;;;95.55;41.85;;;;;;;6.92;100.00;98728.41;4972918;28;20030;-75
2021/11/18 00:53:43;;;;;;;79.88;37.10;;;;;;;6.91;100.00;98734.91;4972393;28;20023;-73
2021/11/18 00:56:10;;;;;;;95.10;40.08;;;;;;;7.03;100.00;98737.47;4973293;28;20031;-79
2021/11/18 00:58:36;;;;;;;91.55;39.35;;;;;;;7.06;100.00;98734.25;4978085;28;20046;-75
2021/11/18 01:01:02;;;;;;;94.60;41.00;;;;;;;6.99;100.00;98731.72;4972363;28;20031;-75
2021/11/18 01:03:29;;;;;;;98.50;42.80;;;;;;;6.95;100.00;98741.50;4972745;28;20038;-74
2021/11/18 01:05:55;;;;;;;92.80;39.78;;;;;;;6.98;100.00;98738.25;4972130;28;20058;-74
2021/11/18 01:08:21;;;;;;;85.72;38.08;;;;;;;7.01;100.00;98740.47;4972264;28;20043;-75
2021/11/18 01:10:58;;;;;;;81.82;39.00;;;;;;;7.08;100.00;98741.09;4972295;28;20042;-77
2021/11/18 01:13:25;;;;;;;95.25;38.75;;;;;;;7.08;100.00;98745.72;4972141;28;20034;-73
2021/11/18 01:15:51;;;;;;;95.15;41.85;;;;;;;6.99;100.00;98737.16;4972174;28;20023;-74
2021/11/18 01:18:17;;;;;;;84.32;39.60;;;;;;;6.99;100.00;98742.59;4973010;28;20049;-74
2021/11/18 01:20:44;;;;;;;88.38;41.05;;;;;;;7.00;100.00;98749.69;4972019;28;20459;-75
2021/11/18 01:23:13;;;;;;;92.65;40.25;;;;;;;6.96;100.00;98754.00;4972091;28;20090;-73
2021/11/18 01:25:39;;;;;;;92.88;41.40;;;;;;;6.96;100.00;98748.56;4972161;28;20029;-74
2021/11/18 01:28:06;;;;;;;90.38;42.05;;;;;;;6.94;100.00;98746.09;4954874;28;20121;-74
2021/11/18 01:30:33;;;;;;;92.80;41.03;;;;;;;6.95;100.00;98757.81;4972149;28;20035;-74
2021/11/18 01:33:00;;;;;;;93.35;41.55;;;;;;;6.93;100.00;98749.06;4972677;28;20027;-75
2021/11/18 01:35:26;;;;;;;95.90;40.83;;;;;;;6.92;100.00;98747.44;4971959;28;20031;-74
2021/11/18 01:37:53;;;;;;;99.70;42.72;;;;;;;6.94;100.00;98748.81;4971904;28;20026;-74
2021/11/18 01:40:22;;;;;;;97.35;42.40;;;;;;;6.89;100.00;98748.72;4971977;28;20481;-74
2021/11/18 01:42:48;;;;;;;91.43;41.60;;;;;;;6.93;100.00;98747.16;4972196;28;20055;-75
2021/11/18 01:45:16;;;;;;;95.65;40.35;;;;;;;7.01;100.00;98756.78;4971882;28;20030;-74
2021/11/18 01:47:43;;;;;;;93.47;41.60;;;;;;;7.06;100.00;98750.56;4971982;28;20058;-74
2021/11/18 01:50:11;;;;;;;88.38;41.55;;;;;;;6.83;100.00;98749.75;4971466;28;20054;-74
2021/11/18 01:52:39;;;;;;;92.88;40.90;;;;;;;6.96;100.00;98752.09;4954270;28;20058;-74
2021/11/18 01:55:05;;;;;;;93.00;40.50;;;;;;;6.97;100.00;98755.63;4972172;28;20035;-74
2021/11/18 01:57:33;;;;;;;97.35;42.38;;;;;;;6.85;100.00;98747.63;4975650;28;20495;-74
2021/11/18 01:59:59;;;;;;;86.18;39.85;;;;;;;6.92;100.00;98750.94;4958075;28;20479;-73
2021/11/18 02:02:28;;;;;;;90.93;42.78;;;;;;;6.89;100.00;98753.38;4975782;28;20038;-74
2021/11/18 02:05:17;;;;;;;84.72;40.40;;;;;;;6.89;100.00;98754.16;4975279;28;20097;-74
2021/11/18 02:07:45;;;;;;;100.72;41.63;;;;;;;6.89;100.00;98762.31;4975731;28;20078;-74
2021/11/18 02:10:15;;;;;;;96.53;42.25;;;;;;;6.94;100.00;98775.19;4975979;28;20086;-74
2021/11/18 02:12:40;;;;;;;90.45;43.47;;;;;;;6.95;100.00;98777.63;4975430;28;20050;-74
2021/11/18 02:15:18;;;;;;;98.25;41.22;;;;;;;6.97;100.00;98775.50;4979500;28;20061;-74
2021/11/18 02:17:43;;;;;;;102.85;43.17;;;;;;;6.99;100.00;98770.63;4982538;28;20061;-79
2021/11/18 02:20:22;;;;;;;97.93;41.38;;;;;;;7.03;100.00;98776.38;4980048;28;20031;-74
2021/11/18 02:22:48;;;;;;;93.18;39.30;;;;;;;7.05;100.00;98776.16;4976584;28;20058;-74
2021/11/18 02:25:14;;;;;;;96.00;40.83;;;;;;;7.09;100.00;98780.00;4974936;28;20065;-73
2021/11/18 02:27:39;;;;;;;91.90;42.42;;;;;;;7.12;100.00;98779.47;4975064;28;20446;-74
2021/11/18 02:30:07;;;;;;;92.75;40.13;;;;;;;7.05;100.00;98766.06;4975002;28;20150;-73
2021/11/18 02:32:37;;;;;;;98.00;41.85;;;;;;;7.09;100.00;98769.94;4975486;28;20058;-75
2021/11/18 02:35:07;;;;;;;94.03;41.08;;;;;;;7.12;100.00;98772.16;4974886;28;20035;-74
2021/11/18 02:37:33;;;;;;;92.38;41.63;;;;;;;7.13;100.00;98768.38;4975009;28;20034;-77
2021/11/18 02:39:59;;;;;;;100.20;43.40;;;;;;;7.04;100.00;98772.59;4974371;28;20475;-83
2021/11/18 02:42:25;;;;;;;97.68;41.92;;;;;;;7.04;100.00;98772.59;4974772;28;20096;-74
2021/11/18 02:44:51;;;;;;;97.68;40.70;;;;;;;6.96;100.00;98776.56;4974908;28;20019;-75
2021/11/18 02:47:17;;;;;;;95.00;41.47;;;;;;;6.90;100.00;98782.19;4974633;28;20027;-75
2021/11/18 02:49:47;;;;;;;94.05;41.03;;;;;;;7.01;100.00;98778.56;4974523;28;20128;-75
2021/11/18 02:52:19;;;;;;;100.60;41.20;;;;;;;7.03;100.00;98781.00;4957442;28;20038;-75
2021/11/18 02:54:45;;;;;;;100.72;42.50;;;;;;;6.96;100.00;98787.44;4975465;28;20034;-75
2021/11/18 02:57:11;;;;;;;101.20;40.67;;;;;;;6.94;100.00;98776.00;4979672;28;20113;-79
2021/11/18 02:59:38;;;;;;;85.13;38.28;;;;;;;7.08;100.00;98789.25;4978937;28;20455;-77
2021/11/18 03:02:05;;;;;;;90.18;39.17;;;;;;;7.06;100.00;98792.19;4974740;28;20022;-76
2021/11/18 03:04:31;;;;;;;105.57;41.17;;;;;;;6.99;100.00;98781.50;4974887;28;20030;-74
2021/11/18 03:06:59;;;;;;;92.47;39.25;;;;;;;6.93;100.00;98790.66;4974122;28;20026;-74
2021/11/18 03:09:24;;;;;;;83.00;35.45;;;;;;;6.84;100.00;98792.19;4974087;28;20027;-75
2021/11/18 03:11:50;;;;;;;84.15;38.63;;;;;;;6.88;100.00;98798.78;4974023;28;20035;-74
2021/11/18 03:14:15;;;;;;;88.93;38.35;;;;;;;6.95;100.00;98798.59;4974341;28;20101;-73
2021/11/18 03:16:41;;;;;;;94.43;38.80;;;;;;;6.98;100.00;98801.59;4975670;28;20030;-80
2021/11/18 03:19:07;;;;;;;88.82;37.90;;;;;;;6.97;100.00;98801.88;4978424;28;20038;-75
2021/11/18 03:21:33;;;;;;;89.57;38.63;;;;;;;7.02;100.00;98799.22;4973901;28;20109;-74
2021/11/18 03:23:58;;;;;;;85.28;37.90;;;;;;;6.96;100.00;98805.66;4966414;28;20506;-74
2021/11/18 03:26:29;;;;;;;96.65;38.80;;;;;;;6.97;100.00;98805.44;4953607;29;20547;-74
2021/11/18 03:28:54;;;;;;;89.93;41.58;;;;;;;6.95;100.00;98801.31;4962345;28;20719;-74
2021/11/18 03:31:20;;;;;;;96.45;41.97;;;;;;;6.94;100.00;98810.53;4976912;28;20065;-80
2021/11/18 03:34:00;;;;;;;99.00;39.28;;;;;;;6.95;100.00;98812.19;4959056;28;20034;-74
2021/11/18 03:36:27;;;;;;;92.53;39.50;;;;;;;6.98;100.00;98811.69;4973713;28;20033;-75
2021/11/18 03:38:54;;;;;;;87.57;37.72;;;;;;;6.98;100.00;98823.38;4973609;28;20102;-74
2021/11/18 03:41:21;;;;;;;84.93;37.28;;;;;;;6.97;100.00;98818.19;4963787;28;20440;-74
2021/11/18 03:43:57;;;;;;;84.85;37.22;;;;;;;6.92;100.00;98807.25;4954391;29;20011;-75
2021/11/18 03:46:28;;;;;;;86.68;37.67;;;;;;;6.95;100.00;98801.31;4953976;29;20542;-78
2021/11/18 03:48:54;;;;;;;81.22;37.25;;;;;;;6.91;100.00;98808.31;4953652;29;20054;-74
2021/11/18 03:51:20;;;;;;;84.55;35.58;;;;;;;6.92;100.00;98812.69;4953865;29;20060;-74
2021/11/18 03:53:46;;;;;;;94.07;38.40;;;;;;;6.91;100.00;98808.31;4953922;29;20155;-74
2021/11/18 03:56:21;;;;;;;90.55;37.08;;;;;;;6.94;100.00;98815.97;4953926;29;20098;-73
2021/11/18 03:58:47;;;;;;;90.47;38.88;;;;;;;6.88;100.00;98816.97;4953933;29;20399;-74
2021/11/18 04:01:12;;;;;;;84.72;36.78;;;;;;;6.92;100.00;98823.56;4953330;29;20035;-74
2021/11/18 04:03:38;;;;;;;82.63;36.45;;;;;;;7.00;100.00;98825.84;4953953;29;20027;-74
2021/11/18 04:06:05;;;;;;;82.80;35.92;;;;;;;6.91;100.00;98824.63;4952421;29;20387;-74
2021/11/18 04:08:31;;;;;;;88.93;37.45;;;;;;;6.94;100.00;98815.97;4952796;29;20027;-75
2021/11/18 04:10:56;;;;;;;91.43;34.38;;;;;;;7.01;100.00;98827.50;4935659;29;20081;-73
2021/11/18 04:13:23;;;;;;;72.78;34.47;;;;;;;6.98;100.00;98823.38;4952473;29;20067;-74
2021/11/18 04:15:51;;;;;;;74.80;35.00;;;;;;;6.99;100.00;98829.63;4952785;29;20502;-76
2021/11/18 04:18:18;;;;;;;73.70;33.85;;;;;;;6.99;100.00;98835.06;4965550;28;20113;-76
2021/11/18 04:20:45;;;;;;;79.93;36.08;;;;;;;6.98;100.00;98838.88;4972683;28;20035;-74
2021/11/18 04:23:11;;;;;;;73.28;36.00;;;;;;;6.93;100.00;98846.94;4973521;28;20771;-75
2021/11/18 04:25:38;;;;;;;82.03;34.85;;;;;;;6.97;100.00;98853.56;4976930;28;20058;-76
2021/11/18 04:28:05;;;;;;;72.75;33.83;;;;;;;6.97;100.00;98848.09;4978451;28;20046;-76
2021/11/18 04:30:38;;;;;;;81.60;36.78;;;;;;;6.93;100.00;98846.94;4973540;28;20110;-75
2021/11/18 04:33:03;;;;;;;74.00;33.05;;;;;;;7.03;100.00;98855.25;4976388;28;20019;-77
2021/11/18 04:35:29;;;;;;;79.68;36.05;;;;;;;7.02;100.00;98856.34;4977442;28;20041;-75
2021/11/18 04:37:54;;;;;;;78.68;34.58;;;;;;;6.97;100.00;98861.72;4972547;28;20386;-76
2021/11/18 04:40:20;;;;;;;73.90;33.38;;;;;;;7.04;100.00;98858.81;4972421;28;20027;-76
2021/11/18 04:42:46;;;;;;;77.07;34.55;;;;;;;7.02;100.00;98867.22;4972432;28;20023;-75
2021/11/18 04:45:15;;;;;;;81.93;35.97;;;;;;;7.04;100.00;98870.53;4972000;28;20070;-74
2021/11/18 04:47:41;;;;;;;74.95;35.67;;;;;;;7.11;100.00;98864.91;4972344;28;20053;-74
2021/11/18 04:50:07;;;;;;;77.80;35.35;;;;;;;7.11;100.00;98873.06;4972159;28;20034;-75
2021/11/18 04:52:33;;;;;;;72.97;33.35;;;;;;;7.06;100.00;98873.81;4972615;28;20390;-75
2021/11/18 04:54:58;;;;;;;71.05;32.35;;;;;;;7.03;100.00;98863.44;4972297;28;20030;-75
2021/11/18 04:57:28;;;;;;;76.43;33.55;;;;;;;7.00;100.00;98875.63;4971953;28;20030;-75
2021/11/18 04:59:55;;;;;;;77.22;33.70;;;;;;;6.99;100.00;98867.72;4971894;28;20069;-75
2021/11/18 05:02:21;;;;;;;79.88;38.13;;;;;;;6.93;100.00;98868.72;4971913;28;20026;-74
2021/11/18 05:04:46;;;;;;;98.70;47.25;;;;;;;6.93;100.00;98874.97;4972492;28;20038;-75
2021/11/18 05:07:12;;;;;;;116.47;53.80;;;;;;;6.93;100.00;98879.59;4972174;28;20027;-74
2021/11/18 05:09:37;;;;;;;73.80;32.83;;;;;;;7.02;100.00;98882.72;4972283;28;20031;-75
2021/11/18 05:12:03;;;;;;;124.07;67.20;;;;;;;7.03;100.00;98879.75;4974836;28;20376;-82
2021/11/18 05:14:28;;;;;;;89.80;41.80;;;;;;;7.03;100.00;98889.78;4976374;28;20039;-74
2021/11/18 05:16:54;;;;;;;100.18;49.55;;;;;;;7.01;100.00;98890.06;4972117;28;20186;-74
2021/11/18 05:19:21;;;;;;;75.68;32.75;;;;;;;7.04;100.00;98886.84;4953858;28;20035;-74
2021/11/18 05:21:46;;;;;;;73.25;33.58;;;;;;;7.04;100.00;98894.16;4971703;28;20133;-74
2021/11/18 05:24:12;;;;;;;62.83;33.00;;;;;;;7.04;100.00;98897.72;4971709;28;20105;-75
2021/11/18 05:26:38;;;;;;;80.07;35.65;;;;;;;7.07;100.00;98891.78;4969609;28;20387;-75
2021/11/18 05:29:05;;;;;;;67.82;32.33;;;;;;;7.12;100.00;98886.41;4966675;28;20098;-75
2021/11/18 05:31:30;;;;;;;69.45;33.50;;;;;;;7.03;100.00;98895.22;4955043;29;20034;-75
2021/11/18 05:33:57;;;;;;;66.38;31.60;;;;;;;7.02;100.00;98899.84;4967876;28;20030;-80
2021/11/18 05:36:23;;;;;;;55.53;27.50;;;;;;;6.93;100.00;98904.88;4975652;28;20509;-75
2021/11/18 05:38:49;;;;;;;53.60;26.63;;;;;;;6.94;100.00;98901.09;4975540;28;20179;-74
2021/11/18 05:41:16;;;;;;;53.15;25.88;;;;;;;6.98;100.00;98904.16;4975521;28;20603;-74
2021/11/18 05:43:42;;;;;;;51.75;27.05;;;;;;;7.01;100.00;98903.66;4975544;28;20051;-74
2021/11/18 05:46:10;;;;;;;51.72;25.80;;;;;;;6.98;100.00;98904.16;4964210;28;20025;-74
2021/11/18 05:48:35;;;;;;;56.17;26.00;;;;;;;7.06;100.00;98914.59;4956679;29;20415;-75
2021/11/18 05:51:01;;;;;;;51.75;26.50;;;;;;;7.06;100.00;98919.22;4956153;29;20030;-74
2021/11/18 05:53:34;;;;;;;55.03;26.83;;;;;;;6.96;100.00;98917.16;4956282;29;20091;-74
2021/11/18 05:56:04;;;;;;;50.47;25.67;;;;;;;6.93;100.00;98917.66;4955885;29;20027;-77
2021/11/18 05:58:29;;;;;;;51.35;28.25;;;;;;;6.99;100.00;98932.97;4956216;29;20475;-73
2021/11/18 06:00:55;;;;;;;53.53;25.45;;;;;;;7.05;100.00;98931.19;4957501;29;20035;-76
2021/11/18 06:03:21;;;;;;;53.05;26.60;;;;;;;6.91;100.00;98936.97;4956475;29;20056;-74
2021/11/18 06:05:46;;;;;;;46.92;25.65;;;;;;;6.90;100.00;98948.91;4938384;29;20038;-77
2021/11/18 06:08:12;;;;;;;57.88;26.95;;;;;;;6.90;100.00;98942.63;4956816;29;20475;-75
2021/11/18 06:10:39;;;;;;;55.00;27.63;;;;;;;6.91;100.00;98941.56;4958961;29;20094;-77
2021/11/18 06:13:06;;;;;;;52.70;26.63;;;;;;;6.95;100.00;98943.53;4961542;29;20023;-76
2021/11/18 06:15:32;;;;;;;55.70;26.35;;;;;;;7.01;100.00;98958.06;4956183;29;20062;-74
2021/11/18 06:17:58;;;;;;;58.22;29.08;;;;;;;7.06;100.00;98966.28;4959439;29;20162;-83
2021/11/18 06:20:24;;;;;;;68.15;31.45;;;;;;;7.09;100.00;98964.97;4948276;29;20039;-76
2021/11/18 06:22:50;;;;;;;63.15;27.80;;;;;;;7.15;100.00;98972.13;4972284;28;20031;-87
2021/11/18 06:25:20;;;;;;;54.08;26.85;;;;;;;7.15;100.00;98980.28;4980505;28;20034;-86
2021/11/18 06:27:46;;;;;;;58.20;28.10;;;;;;;7.13;100.00;98986.00;4981980;28;20026;-76
2021/11/18 06:30:22;;;;;;;67.47;36.58;;;;;;;7.16;100.00;98979.22;4976274;28;20089;-75
2021/11/18 06:32:49;;;;;;;82.68;46.38;;;;;;;7.19;100.00;98986.91;4975322;28;20027;-76
2021/11/18 06:35:16;;;;;;;58.08;29.98;;;;;;;7.06;100.00;98982.59;4977480;28;20027;-76
2021/11/18 06:37:42;;;;;;;56.30;28.40;;;;;;;7.04;100.00;98990.19;4976288;28;20554;-77
2021/11/18 06:40:11;;;;;;;63.47;31.25;;;;;;;6.97;100.00;98994.97;4978091;28;20030;-76
2021/11/18 06:42:39;;;;;;;69.70;34.47;;;;;;;7.13;100.00;98999.59;4984721;28;20035;-83
2021/11/18 06:45:07;;;;;;;74.90;36.10;;;;;;;7.14;100.00;99006.66;4976273;28;20038;-76
2021/11/18 06:47:32;;;;;;;59.70;29.27;;;;;;;7.02;100.00;99005.13;4977806;28;20051;-76
2021/11/18 06:49:57;;;;;;;80.00;38.20;;;;;;;7.11;100.00;99017.25;4976368;28;20045;-75
2021/11/18 06:52:23;;;;;;;59.60;28.58;;;;;;;7.04;100.00;99022.00;4974748;28;20114;-75
2021/11/18 06:54:49;;;;;;;129.70;56.75;;;;;;;7.04;100.00;99020.13;4974821;28;20392;-75
2021/11/18 06:57:15;;;;;;;70.88;32.17;;;;;;;7.02;100.00;99035.84;4956805;28;20722;-75
2021/11/18 06:59:40;;;;;;;64.07;28.90;;;;;;;7.04;100.00;99035.63;4977566;28;20034;-75
2021/11/18 07:02:06;;;;;;;61.08;29.95;;;;;;;7.08;100.00;99034.06;4976373;28;20034;-81
2021/11/18 07:04:32;;;;;;;63.13;30.35;;;;;;;7.13;100.00;99043.13;4977619;28;20030;-74
2021/11/18 07:06:57;;;;;;;67.75;31.48;;;;;;;7.17;100.00;99038.84;4977992;28;20094;-74
2021/11/18 07:09:23;;;;;;;63.83;30.10;;;;;;;7.22;100.00;99040.81;4976834;28;20023;-76
2021/11/18 07:11:48;;;;;;;61.17;30.38;;;;;;;7.26;100.00;99041.97;4976009;28;20062;-75
2021/11/18 07:14:14;;;;;;;60.90;30.05;;;;;;;7.22;100.00;99046.25;4977633;28;20038;-82
2021/11/18 07:16:40;;;;;;;64.97;30.92;;;;;;;7.26;100.00;99037.38;4957197;28;20042;-76
2021/11/18 07:19:07;;;;;;;67.82;30.15;;;;;;;7.26;100.00;99041.97;4975907;28;20066;-77
2021/11/18 07:21:35;;;;;;;63.05;31.00;;;;;;;7.45;100.00;99057.81;4974174;28;20058;-78
2021/11/18 07:24:04;;;;;;;68.97;30.20;;;;;;;7.51;100.00;99061.44;4976232;28;20026;-82
2021/11/18 07:26:32;;;;;;;58.83;28.88;;;;;;;7.57;100.00;99056.91;4976649;28;20498;-75
2021/11/18 07:28:58;;;;;;;62.80;29.67;;;;;;;7.62;100.00;99074.13;4974370;28;20031;-75
2021/11/18 07:31:23;;;;;;;59.33;28.10;;;;;;;7.62;100.00;99070.56;4976234;28;20506;-76
2021/11/18 07:33:49;;;;;;;58.33;30.05;;;;;;;7.51;100.00;99077.78;4957949;28;20162;-76
2021/11/18 07:36:15;;;;;;;61.28;30.08;;;;;;;7.49;100.00;99075.28;4976407;28;20031;-76
2021/11/18 07:38:41;;;;;;;65.70;29.70;;;;;;;7.41;100.00;99062.09;4976290;28;20062;-79
2021/11/18 07:41:08;;;;;;;66.93;29.92;;;;;;;7.50;100.00;99068.78;4975425;28;20510;-76
2021/11/18 07:43:38;;;;;;;64.95;30.95;;;;;;;7.49;100.00;99067.13;4959118;28;20407;-76
2021/11/18 07:46:05;;;;;;;60.78;29.30;;;;;;;7.53;100.00;99073.72;4977798;28;20031;-76
2021/11/18 07:48:32;;;;;;;58.55;29.83;;;;;;;7.46;100.00;99075.78;4956142;28;20137;-75
2021/11/18 07:51:00;;;;;;;62.17;30.15;;;;;;;7.54;100.00;99083.56;4974066;28;20077;-76
2021/11/18 07:53:28;;;;;;;59.83;28.58;;;;;;;7.54;100.00;99088.16;4973015;28;20030;-75
2021/11/18 07:55:54;;;;;;;54.72;27.88;;;;;;;7.52;100.00;99093.84;4973690;28;20040;-75
2021/11/18 07:58:20;;;;;;;50.40;25.70;;;;;;;7.52;100.00;99093.84;4973129;28;20377;-75
2021/11/18 08:00:47;;;;;;;53.40;25.45;;;;;;;7.41;100.00;99097.47;4973424;28;20054;-76
2021/11/18 08:03:14;;;;;;;55.50;25.55;;;;;;;7.44;100.00;99099.72;4974585;28;20081;-75
2021/11/18 08:05:40;;;;;;;57.10;27.08;;;;;;;7.46;100.00;99102.16;4975440;28;20439;-81
2021/11/18 08:08:06;;;;;;;56.05;26.60;;;;;;;7.47;100.00;99107.38;4980112;28;20035;-77
2021/11/18 08:10:32;;;;;;;52.38;25.67;;;;;;;7.46;100.00;99100.28;4978052;28;20035;-78
2021/11/18 08:12:57;;;;;;;40.88;21.42;;;;;;;7.50;100.00;99098.72;4979234;28;20023;-79
2021/11/18 08:15:24;;;;;;;45.22;20.85;;;;;;;7.46;100.00;99105.72;4974977;28;20109;-74
2021/11/18 08:17:51;;;;;;;37.90;19.55;;;;;;;7.41;100.00;99116.53;4976930;28;20114;-78
2021/11/18 08:20:18;;;;;;;37.22;18.35;;;;;;;7.39;100.00;99123.31;4974773;28;20364;-74
2021/11/18 08:22:44;;;;;;;42.13;19.95;;;;;;;7.37;100.00;99115.38;4972510;28;20030;-76
2021/11/18 08:25:11;;;;;;;43.33;19.65;;;;;;;7.37;100.00;99109.09;4972715;28;20022;-77
2021/11/18 08:27:38;;;;;;;41.05;20.00;;;;;;;7.47;100.00;99107.38;4972383;28;20019;-75
2021/11/18 08:30:08;;;;;;;38.45;19.27;;;;;;;7.40;100.00;99100.44;4972458;28;20109;-74
2021/11/18 08:32:34;;;;;;;41.20;19.13;;;;;;;7.45;100.00;99108.72;4970182;28;20047;-74
2021/11/18 08:35:00;;;;;;;35.05;18.33;;;;;;;7.53;100.00;99120.00;4972801;28;20471;-78
2021/11/18 08:37:25;;;;;;;36.65;19.63;;;;;;;7.60;100.00;99119.84;4973064;28;20037;-76
2021/11/18 08:39:51;;;;;;;33.53;18.35;;;;;;;7.68;100.00;99126.75;4971625;28;20026;-75
2021/11/18 08:42:19;;;;;;;38.22;18.98;;;;;;;7.77;100.00;99128.03;4971664;28;20423;-76
2021/11/18 08:44:45;;;;;;;33.83;17.85;;;;;;;7.81;100.00;99129.16;4971852;28;20022;-75
2021/11/18 08:47:13;;;;;;;32.40;17.35;;;;;;;7.80;100.00;99136.50;4973409;28;20030;-75
2021/11/18 08:49:38;;;;;;;33.83;18.33;;;;;;;7.84;100.00;99145.81;4977635;28;20040;-78
2021/11/18 08:52:08;;;;;;;33.60;17.30;;;;;;;7.81;100.00;99148.22;4975979;28;20483;-77
2021/11/18 08:54:37;;;;;;;31.48;18.27;;;;;;;7.67;100.00;99152.34;4971474;28;20022;-77
2021/11/18 08:57:02;;;;;;;32.75;17.50;;;;;;;7.86;100.00;99151.84;4948874;28;20033;-76
2021/11/18 08:59:29;;;;;;;25.33;14.38;;;;;;;7.86;100.00;99161.94;4971100;28;20053;-76
2021/11/18 09:02:00;;;;;;;29.48;15.32;;;;;;;7.82;100.00;99166.22;4971104;28;20997;-77
2021/11/18 09:04:27;;;;;;;37.20;17.10;;;;;;;7.94;100.00;99169.69;4973234;28;20015;-77
2021/11/18 09:06:53;;;;;;;34.13;17.20;;;;;;;8.02;100.00;99166.53;4972431;28;20055;-80
2021/11/18 09:09:22;;;;;;;33.03;16.77;;;;;;;8.13;100.00;99168.34;4971819;28;20118;-77
2021/11/18 09:11:48;;;;;;;34.45;17.52;;;;;;;8.14;100.00;99164.56;4971181;28;20039;-75
2021/11/18 09:14:15;;;;;;;31.95;16.55;;;;;;;8.21;100.00;99170.63;4972451;28;20025;-75
2021/11/18 09:16:42;;;;;;;33.20;17.05;;;;;;;8.39;100.00;99166.84;4972253;28;20042;-75
2021/11/18 09:19:11;;;;;;;29.75;15.45;;;;;;;8.44;100.00;99162.28;4972269;28;20030;-75
2021/11/18 09:21:37;;;;;;;33.65;16.88;;;;;;;8.76;100.00;99167.06;4972187;28;20085;-75
2021/11/18 09:24:22;;;;;;;27.23;13.93;;;;;;;8.93;100.00;99167.81;4972642;28;20027;-74
2021/11/18 09:26:54;;;;;;;25.90;13.23;;;;;;;8.93;100.00;99173.28;4974068;28;20050;-76
2021/11/18 09:29:21;;;;;;;25.20;13.68;;;;;;;8.88;100.00;99162.31;4972797;28;20273;-75
2021/11/18 09:31:47;;;;;;;24.73;13.00;;;;;;;9.15;100.00;99165.91;4972510;28;20035;-75
2021/11/18 09:34:14;;;;;;;23.80;13.30;;;;;;;9.43;97.85;99168.38;4972640;28;20026;-75
2021/11/18 09:36:40;;;;;;;23.08;12.57;;;;;;;9.79;95.14;99158.63;4972354;28;20027;-74
2021/11/18 09:39:08;;;;;;;20.73;12.60;;;;;;;10.43;90.28;99145.69;4972246;28;20027;-75
2021/11/18 09:41:58;;;;;;;23.55;13.68;;;;;;;10.37;87.99;99146.75;4972422;28;20034;-73
2021/11/18 09:44:32;;;;;;;25.17;13.90;;;;;;;11.09;86.85;99149.53;4972456;28;20027;-75
2021/11/18 09:47:08;;;;;;;22.58;13.63;;;;;;;12.89;77.47;99141.53;4972296;28;20059;-74
2021/11/18 09:49:50;;;;;;;;;;;;;;;12.77;76.96;99145.72;4972655;28;20039;-75
2021/11/18 09:52:31;;;;;;;19.70;11.55;;;;;;;12.17;77.04;99149.41;4972047;28;20450;-75
2021/11/18 09:55:01;;;;;;;22.27;13.02;;;;;;;12.30;79.17;99148.84;4972494;28;20096;-76
2021/11/18 09:57:48;;;;;;;20.55;13.20;;;;;;;11.33;83.48;99158.13;4972177;28;20023;-74
2021/11/18 10:00:18;;;;;;;20.30;11.65;;;;;;;12.10;81.59;99151.59;4973016;28;20047;-76
2021/11/18 10:03:01;;;;;;;22.52;13.13;;;;;;;12.49;77.14;99160.91;4975270;28;20459;-74
2021/11/18 10:06:09;;;;;;;19.48;12.13;;;;;;;13.11;74.63;99159.59;4972289;28;20034;-74
2021/11/18 10:08:48;;;;;;;17.63;11.30;;;;;;;14.38;70.87;99160.34;4926088;28;20043;-75
2021/11/18 10:11:34;;;;;;;16.60;10.80;;;;;;;13.54;68.42;99172.53;4971821;28;20039;-74
2021/11/18 10:14:35;;;;;;;17.75;11.32;;;;;;;14.84;65.67;99166.19;4972547;28;20033;-76
2021/11/18 10:17:08;;;;;;;15.95;10.18;;;;;;;13.79;67.83;99166.88;4930644;28;20505;-75
2021/11/18 10:19:39;;;;;;;18.08;10.32;;;;;;;13.44;69.31;99161.59;4975243;28;20414;-76
2021/11/18 10:22:06;;;;;;;15.32;10.25;;;;;;;12.61;71.47;99161.41;4975388;28;20090;-74
2021/11/18 10:24:38;;;;;;;18.52;11.85;;;;;;;11.96;74.66;99161.50;4975144;28;20019;-76
2021/11/18 10:27:15;;;;;;;17.50;11.02;;;;;;;12.69;73.46;99168.22;4975188;28;20491;-76
2021/11/18 10:29:52;;;;;;;18.17;10.65;;;;;;;11.84;73.29;99161.75;4975809;28;20030;-75
2021/11/18 10:32:18;;;;;;;16.52;10.25;;;;;;;11.07;76.90;99149.00;4975024;28;21077;-75
2021/11/18 10:34:50;;;;;;;15.20;9.85;;;;;;;10.57;80.61;99157.00;4975829;28;20058;-75
2021/11/18 10:37:26;;;;;;;16.73;9.70;;;;;;;10.10;80.61;99148.75;4974896;28;20063;-75
2021/11/18 10:40:06;;;;;;;18.85;9.55;;;;;;;10.50;79.36;99143.56;4975202;28;20035;-76
2021/11/18 10:42:48;;;;;;;17.25;10.52;;;;;;;10.16;81.91;99144.97;4975516;28;20030;-74
2021/11/18 10:45:34;;;;;;;18.38;10.57;;;;;;;10.33;81.38;99145.66;4978406;28;20027;-77
2021/11/18 10:48:05;;;;;;;16.80;10.07;;;;;;;10.87;79.53;99151.66;4979749;28;20055;-73
2021/11/18 10:50:39;;;;;;;18.23;10.60;;;;;;;11.19;77.85;99155.06;4961362;28;20122;-76
2021/11/18 10:53:16;;;;;;;18.60;10.68;;;;;;;11.35;76.35;99155.91;4975485;28;20034;-76
2021/11/18 10:55:44;;;;;;;18.05;10.80;;;;;;;11.51;75.98;99146.63;4974889;28;20070;-75
2021/11/18 10:58:29;;;;;;;17.90;9.98;;;;;;;11.21;77.59;99147.38;4974342;28;20085;-75
2021/11/18 11:01:01;;;;;;;19.85;9.48;;;;;;;11.27;75.57;99151.81;4974803;28;20038;-74
2021/11/18 11:03:38;;;;;;;17.58;10.02;;;;;;;11.35;75.31;99155.09;4957173;28;20077;-75
2021/11/18 11:06:10;;;;;;;17.25;9.80;;;;;;;11.33;75.92;99152.63;4974937;28;20081;-76
2021/11/18 11:08:36;;;;;;;17.85;10.45;;;;;;;11.41;75.99;99151.25;4974329;28;20517;-75
2021/11/18 11:11:48;;;;;;;17.17;10.52;;;;;;;10.77;78.76;99135.22;4974393;28;20042;-78
2021/11/18 11:14:52;;;;;;;20.30;10.80;;;;;;;10.36;80.40;99139.66;4974375;28;20035;-74
2021/11/18 11:17:53;;;;;;;20.33;11.43;;;;;;;10.37;81.84;99135.00;4974741;28;20089;-75
2021/11/18 11:20:21;;;;;;;22.42;11.60;;;;;;;10.47;82.09;99135.88;4974189;28;20035;-76
2021/11/18 11:23:05;;;;;;;19.05;10.77;;;;;;;10.50;81.31;99132.59;4974187;28;20502;-75
2021/11/18 11:26:04;;;;;;;20.13;11.38;;;;;;;10.67;80.12;99130.50;4974085;28;20023;-76